»·PEaware :: UAL5278 KJAC-KLAS

UAL5278 :: KJAC-KLAS

FLIGHT INFORMATION

Flight Status: Arrived
Operator:
United Airlines
More flights by this operator :: More flights under this callsign
Pilot: Utku A. (15598)
Aircraft: BOEING 737-300
(B733)
More flights by this aircraft type
Origin: KJAC Jackson Hole
United States
Destination: KLAS McCarran Intl
United States
More flights between these airports :: More routes between these airports
Route: +GEYSR5 NALSI DNW FFU J9 MLF MPIRE SITEE3
File this flight plan on PilotEdge
Remarks:
Altitude:
(Current/Filed)
36,000ft
Speed:
(Current/Filed)
429kts
Departed: 01-Aug-18 03:46 PM
Arrived: 01-Aug-18 05:19 PM
Distance/Time
Traveled:
495nm/1:33
Distance/Time
To Go:
Arrived

Flight Plot

Page will automatically refresh every two minutes.

Flight plan parsing failed; only flown route is shown


Map Options




Map Legend


Flown Route
Filed Route
Departure Airport
Arrival Airport
Navaid (VOR, NDB)
Fix

Horizontal Profiles

Position Reports

Time Latitude Longitude Heading Altitude Ground
Speed
01-Aug-18 15:12 43.604258 -110.736663 109 6428ft 0kts
01-Aug-18 15:13 43.604258 -110.736663 109 6428ft 0kts
01-Aug-18 15:14 43.604258 -110.736663 109 6428ft 0kts
01-Aug-18 15:15 43.604258 -110.736663 109 6428ft 0kts
01-Aug-18 15:16 43.604258 -110.736663 109 6428ft 0kts
01-Aug-18 15:17 43.604258 -110.736663 109 6428ft 0kts
01-Aug-18 15:18 43.604258 -110.736663 109 6428ft 0kts
01-Aug-18 15:19 43.604258 -110.736663 109 6428ft 0kts
01-Aug-18 15:20 43.604258 -110.736663 109 6428ft 0kts
01-Aug-18 15:21 43.604258 -110.736663 109 6428ft 0kts
01-Aug-18 15:22 43.604258 -110.736663 109 6428ft 0kts
01-Aug-18 15:23 43.604258 -110.736663 109 6428ft 0kts
01-Aug-18 15:24 43.604258 -110.736663 109 6428ft 0kts
01-Aug-18 15:25 43.604258 -110.736663 109 6428ft 0kts
01-Aug-18 15:26 43.604258 -110.736663 109 6428ft 0kts
01-Aug-18 15:27 43.604258 -110.736663 109 6428ft 0kts
01-Aug-18 15:28 43.604258 -110.736663 109 6428ft 0kts
01-Aug-18 15:29 43.604258 -110.736663 109 6428ft 0kts
01-Aug-18 15:30 43.604258 -110.736663 109 6428ft 0kts
01-Aug-18 15:31 43.604258 -110.736663 109 6428ft 0kts
01-Aug-18 15:32 43.604258 -110.736663 109 6428ft 0kts
01-Aug-18 15:33 43.604258 -110.736663 109 6428ft 0kts
01-Aug-18 15:34 43.604258 -110.736663 109 6428ft 0kts
01-Aug-18 15:35 43.604258 -110.736663 109 6428ft 0kts
01-Aug-18 15:36 43.604258 -110.736663 109 6428ft 0kts
01-Aug-18 15:37 43.604258 -110.736663 109 6428ft 0kts
01-Aug-18 15:38 43.604359 -110.737058 115 6428ft 2kts
01-Aug-18 15:39 43.604865 -110.737375 195 6428ft 1kts
01-Aug-18 15:40 43.604946 -110.737334 199 6428ft 0kts
01-Aug-18 15:41 43.604946 -110.737334 199 6428ft 0kts
01-Aug-18 15:42 43.604946 -110.737334 199 6428ft 0kts
01-Aug-18 15:43 43.604026 -110.737784 199 6427ft 11kts
01-Aug-18 15:44 43.599391 -110.740038 199 6417ft 9kts
01-Aug-18 15:45 43.599129 -110.740267 227 6416ft 2kts
01-Aug-18 15:46 43.599684 -110.741502 19 6415ft 0kts
01-Aug-18 15:47 43.617263 -110.732762 22 6590ft 161kts
01-Aug-18 15:48 43.664594 -110.707590 11 8580ft 208kts
01-Aug-18 15:49 43.709598 -110.658090 43 11218ft 227kts
01-Aug-18 15:50 43.761246 -110.618968 25 13685ft 214kts
01-Aug-18 15:51 43.819083 -110.574301 31 14572ft 285kts
01-Aug-18 15:52 43.847663 -110.463553 102 15252ft 364kts
01-Aug-18 15:53 43.768421 -110.399460 192 17862ft 374kts
01-Aug-18 15:54 43.690189 -110.491667 227 20370ft 383kts
01-Aug-18 15:55 43.609661 -110.587802 197 23060ft 394kts
01-Aug-18 15:56 43.503004 -110.626679 200 24968ft 407kts
01-Aug-18 15:57 43.393692 -110.673263 201 26714ft 421kts
01-Aug-18 15:58 43.280423 -110.721663 201 28333ft 434kts
01-Aug-18 15:59 43.165303 -110.770652 202 30297ft 433kts
01-Aug-18 16:00 43.051710 -110.818838 202 32215ft 427kts
01-Aug-18 16:01 42.939182 -110.866340 203 34181ft 414kts
01-Aug-18 16:02 42.831758 -110.911430 203 34482ft 405kts
01-Aug-18 16:03 42.725310 -110.956127 203 34502ft 413kts
01-Aug-18 16:04 42.613944 -111.002590 204 35422ft 420kts
01-Aug-18 16:05 42.503507 -111.048584 204 36234ft 421kts
01-Aug-18 16:06 42.391827 -111.094320 198 36202ft 422kts
01-Aug-18 16:07 42.272331 -111.102847 188 36215ft 433kts
01-Aug-18 16:08 42.152707 -111.107236 188 36213ft 433kts
01-Aug-18 16:09 42.034094 -111.111716 188 36172ft 424kts
01-Aug-18 16:10 41.925293 -111.150423 214 36068ft 409kts
01-Aug-18 16:11 41.834880 -111.200887 207 36045ft 413kts
01-Aug-18 16:12 41.727410 -111.253141 207 36051ft 413kts
01-Aug-18 16:13 41.619362 -111.305432 207 36050ft 413kts
01-Aug-18 16:14 41.512255 -111.357081 207 36230ft 412kts
01-Aug-18 16:15 41.407341 -111.407502 207 36267ft 413kts
01-Aug-18 16:16 41.300187 -111.458822 207 36265ft 412kts
01-Aug-18 16:17 41.192596 -111.510164 207 36268ft 412kts
01-Aug-18 16:18 41.085689 -111.561023 206 36274ft 412kts
01-Aug-18 16:19 40.979210 -111.611466 206 36256ft 410kts
01-Aug-18 16:20 40.873241 -111.661540 206 36001ft 411kts
01-Aug-18 16:21 40.767451 -111.711408 206 36051ft 411kts
01-Aug-18 16:22 40.660383 -111.761626 206 36050ft 411kts
01-Aug-18 16:23 40.553699 -111.811497 206 36057ft 411kts
01-Aug-18 16:24 40.446496 -111.861441 206 36078ft 411kts
01-Aug-18 16:25 40.339844 -111.910960 206 36077ft 411kts
01-Aug-18 16:26 40.233990 -111.964246 210 36069ft 408kts
01-Aug-18 16:27 40.130673 -112.025339 210 36078ft 409kts
01-Aug-18 16:28 40.027677 -112.085797 210 36077ft 408kts
01-Aug-18 16:29 39.924292 -112.145510 210 36076ft 409kts
01-Aug-18 16:30 39.820532 -112.204176 210 36080ft 410kts
01-Aug-18 16:31 39.716757 -112.262914 210 36105ft 410kts
01-Aug-18 16:32 39.612664 -112.321663 210 36104ft 410kts
01-Aug-18 16:33 39.509042 -112.379954 210 36104ft 410kts
01-Aug-18 16:34 39.404978 -112.438302 210 36104ft 410kts
01-Aug-18 16:35 39.301595 -112.496080 210 36105ft 410kts
01-Aug-18 16:36 39.198242 -112.553653 210 36104ft 410kts
01-Aug-18 16:37 39.093852 -112.611618 210 36105ft 410kts
01-Aug-18 16:38 38.991493 -112.668392 209 36097ft 411kts
01-Aug-18 16:39 38.887455 -112.725928 209 36073ft 412kts
01-Aug-18 16:40 38.783536 -112.782895 209 36105ft 411kts
01-Aug-18 16:41 38.678931 -112.840232 209 36104ft 411kts
01-Aug-18 16:42 38.576145 -112.896335 207 36100ft 385kts
01-Aug-18 16:43 38.477421 -112.950190 207 36115ft 393kts
01-Aug-18 16:44 38.377674 -113.004353 206 36103ft 390kts
01-Aug-18 16:45 38.279831 -113.062651 209 36105ft 391kts
01-Aug-18 16:46 38.182232 -113.122646 209 36104ft 391kts
01-Aug-18 16:47 38.085029 -113.182218 209 36103ft 391kts
01-Aug-18 16:48 37.987964 -113.241530 209 36105ft 391kts
01-Aug-18 16:49 37.890535 -113.300880 209 36166ft 392kts
01-Aug-18 16:50 37.793010 -113.359924 208 35258ft 392kts
01-Aug-18 16:51 37.694745 -113.419436 208 33878ft 397kts
01-Aug-18 16:52 37.594949 -113.479698 207 32503ft 403kts
01-Aug-18 16:53 37.494075 -113.540104 207 31132ft 408kts
01-Aug-18 16:54 37.391486 -113.601593 207 29758ft 414kts
01-Aug-18 16:55 37.289515 -113.662658 206 28391ft 421kts
01-Aug-18 16:56 37.184090 -113.725713 205 27011ft 425kts
01-Aug-18 16:57 37.080183 -113.787501 205 25499ft 401kts
01-Aug-18 16:58 36.984340 -113.844357 205 23986ft 373kts
01-Aug-18 16:59 36.895895 -113.896670 205 22477ft 343kts
01-Aug-18 17:00 36.808371 -113.948146 205 21064ft 367kts
01-Aug-18 17:01 36.717587 -114.001530 205 19676ft 360kts
01-Aug-18 17:02 36.628137 -114.054011 204 18287ft 356kts
01-Aug-18 17:03 36.553590 -114.126238 236 16882ft 338kts
01-Aug-18 17:04 36.505869 -114.220677 236 15479ft 315kts
01-Aug-18 17:05 36.466780 -114.296923 236 14319ft 312kts
01-Aug-18 17:06 36.413437 -114.401094 237 12697ft 304kts
01-Aug-18 17:07 36.375922 -114.473980 237 11917ft 300kts
01-Aug-18 17:08 36.330785 -114.561654 237 10606ft 295kts
01-Aug-18 17:09 36.267678 -114.643487 200 9664ft 284kts
01-Aug-18 17:10 36.209622 -114.668532 200 9000ft 253kts
01-Aug-18 17:11 36.145434 -114.696350 200 8502ft 243kts
01-Aug-18 17:12 36.082870 -114.726668 225 8035ft 242kts
01-Aug-18 17:13 36.073512 -114.801564 269 7068ft 215kts
01-Aug-18 17:14 36.073835 -114.863748 270 6302ft 149kts
01-Aug-18 17:15 36.075026 -114.917448 268 5479ft 160kts
01-Aug-18 17:16 36.073833 -114.971595 265 4524ft 156kts
01-Aug-18 17:17 36.074101 -115.024623 267 3717ft 154kts
01-Aug-18 17:18 36.073845 -115.073726 266 2925ft 142kts
01-Aug-18 17:19 36.073682 -115.122041 267 2130ft 136kts
01-Aug-18 17:20 36.074492 -115.145450 299 2101ft 16kts
01-Aug-18 17:21 36.077224 -115.146565 356 2102ft 8kts
01-Aug-18 17:22 36.077988 -115.150372 274 2112ft 12kts
01-Aug-18 17:23 36.079527 -115.153767 334 2123ft 16kts
01-Aug-18 17:24 36.082187 -115.152924 359 2113ft 4kts
01-Aug-18 17:25 36.082368 -115.152925 0 2112ft 0kts

Navigation Log

Ident Type
Flight plan parsing failed, navigation log unavailable